Time;durP1;ratioP1;P1;durP2;ratioP2;P2;SDS_P1;SDS_P2;PMS_P1;PMS_P2;Temp;Humidity;BMP_temperature;BMP_pressure;BME280_temperature;BME280_humidity;BME280_pressure;Samples;Min_cycle;Max_cycle;Signal;HPM_P1;HPM_P2
2022/01/08 00:02:20;;;;;;;6.78;3.95;;;;;;;;;;4969038;28;20035;-59
2022/01/08 00:04:45;;;;;;;4.15;3.30;;;;;;;;;;4971723;28;20039;-58
2022/01/08 00:07:11;;;;;;;3.53;3.00;;;;;;;;;;4951923;28;20031;-59
2022/01/08 00:09:36;;;;;;;4.55;3.30;;;;;;;;;;4970753;28;20448;-60
2022/01/08 00:12:02;;;;;;;4.57;3.03;;;;;;;;;;4968945;28;20077;-57
2022/01/08 00:14:28;;;;;;;3.63;2.83;;;;;;;;;;4970798;28;20547;-58
2022/01/08 00:16:54;;;;;;;4.80;3.20;;;;;;;;;;4954492;28;20460;-58
2022/01/08 00:19:19;;;;;;;3.60;2.97;;;;;;;;;;4969778;28;20065;-60
2022/01/08 00:21:45;;;;;;;4.65;2.90;;;;;;;;;;4970875;28;20422;-59
2022/01/08 00:24:10;;;;;;;4.60;2.90;;;;;;;;;;4968740;28;20510;-55
2022/01/08 00:26:36;;;;;;;4.93;2.90;;;;;;;;;;4965333;28;20043;-58
2022/01/08 00:29:02;;;;;;;3.55;3.03;;;;;;;;;;4957658;28;20041;-57
2022/01/08 00:31:27;;;;;;;4.38;2.70;;;;;;;;;;4973303;28;20200;-58
2022/01/08 00:33:53;;;;;;;3.42;2.58;;;;;;;;;;4955127;28;20046;-59
2022/01/08 00:36:19;;;;;;;3.70;2.92;;;;;;;;;;4933631;29;20410;-59
2022/01/08 00:38:44;;;;;;;3.67;2.90;;;;;;;;;;4933601;29;20445;-60
2022/01/08 00:41:10;;;;;;;5.22;2.90;;;;;;;;;;4934021;29;20428;-60
2022/01/08 00:43:36;;;;;;;4.22;3.13;;;;;;;;;;4933289;29;20032;-57
2022/01/08 00:46:01;;;;;;;4.15;3.17;;;;;;;;;;4932075;29;20504;-54
2022/01/08 00:48:27;;;;;;;6.40;3.40;;;;;;;;;;4936262;28;20031;-58
2022/01/08 00:50:52;;;;;;;7.43;3.30;;;;;;;;;;4933148;29;20046;-58
2022/01/08 00:53:19;;;;;;;4.93;3.53;;;;;;;;;;4935010;29;20023;-59
2022/01/08 00:55:44;;;;;;;3.92;3.38;;;;;;;;;;4934352;29;20023;-59
2022/01/08 00:58:10;;;;;;;5.60;3.60;;;;;;;;;;4933923;29;20035;-60
2022/01/08 01:00:36;;;;;;;4.97;3.50;;;;;;;;;;4932306;29;20032;-56
2022/01/08 01:03:01;;;;;;;6.93;3.97;;;;;;;;;;4931822;29;20059;-60
2022/01/08 01:05:27;;;;;;;9.13;4.03;;;;;;;;;;4932873;29;20031;-60
2022/01/08 01:07:53;;;;;;;6.85;3.90;;;;;;;;;;4931772;29;20028;-59
2022/01/08 01:10:19;;;;;;;7.55;3.67;;;;;;;;;;4934417;29;20455;-59
2022/01/08 01:12:44;;;;;;;4.72;3.15;;;;;;;;;;4931592;29;20090;-59
2022/01/08 01:15:12;;;;;;;5.35;3.90;;;;;;;;;;4933296;28;20055;-59
2022/01/08 01:17:38;;;;;;;6.50;4.00;;;;;;;;;;4931914;29;20043;-59
2022/01/08 01:20:05;;;;;;;5.22;4.28;;;;;;;;;;4932390;29;20031;-60
2022/01/08 01:22:41;;;;;;;5.38;4.22;;;;;;;;;;4931346;29;20038;-59
2022/01/08 01:25:09;;;;;;;7.13;4.00;;;;;;;;;;4930787;29;20028;-59
2022/01/08 01:27:57;;;;;;;8.02;4.55;;;;;;;;;;4932909;29;20031;-60
2022/01/08 01:30:50;;;;;;;6.68;4.50;;;;;;;;;;4967230;28;20058;-57
2022/01/08 01:41:36;;;;;;;5.65;4.13;;;;;;;;;;4962436;28;20080;-58
2022/01/08 01:49:16;;;;;;;5.63;3.85;;;;;;;;;;4967482;28;20049;-56
2022/01/08 01:51:42;;;;;;;6.40;3.78;;;;;;;;;;4965631;28;20026;-59
2022/01/08 01:54:07;;;;;;;5.53;3.83;;;;;;;;;;4965591;28;20698;-60
2022/01/08 01:56:33;;;;;;;6.45;4.30;;;;;;;;;;4963671;28;20027;-59
2022/01/08 01:58:58;;;;;;;5.30;4.00;;;;;;;;;;4966048;28;20117;-59
2022/01/08 02:01:24;;;;;;;5.57;3.72;;;;;;;;;;4966768;28;20035;-61
2022/01/08 02:03:49;;;;;;;5.47;4.18;;;;;;;;;;4963963;28;20029;-60
2022/01/08 02:06:15;;;;;;;5.20;3.88;;;;;;;;;;4965224;28;20031;-57
2022/01/08 02:08:42;;;;;;;5.05;3.92;;;;;;;;;;4965089;28;20454;-61
2022/01/08 02:11:08;;;;;;;6.50;4.53;;;;;;;;;;4965553;28;20038;-61
2022/01/08 02:13:34;;;;;;;5.65;4.05;;;;;;;;;;4975899;28;20039;-61
2022/01/08 02:16:01;;;;;;;6.60;4.25;;;;;;;;;;4963657;28;20038;-59
2022/01/08 02:18:27;;;;;;;4.93;4.25;;;;;;;;;;4964289;28;20035;-61
2022/01/08 02:20:55;;;;;;;5.93;4.60;;;;;;;;;;4964569;28;20097;-61
2022/01/08 02:23:22;;;;;;;7.30;5.00;;;;;;;;;;4963120;28;20035;-61
2022/01/08 02:25:48;;;;;;;7.35;5.10;;;;;;;;;;4965211;28;20037;-59
2022/01/08 02:28:14;;;;;;;5.40;4.47;;;;;;;;;;4980409;28;20034;-59
2022/01/08 02:30:39;;;;;;;7.78;4.82;;;;;;;;;;4984209;28;20033;-60
2022/01/08 02:33:04;;;;;;;6.32;4.75;;;;;;;;;;4983402;28;20109;-60
2022/01/08 02:35:30;;;;;;;5.53;4.00;;;;;;;;;;5002631;28;20034;-60
2022/01/08 02:37:55;;;;;;;6.72;4.13;;;;;;;;;;4981023;28;20419;-60
2022/01/08 02:40:22;;;;;;;4.78;3.47;;;;;;;;;;4940910;28;20507;-60
2022/01/08 02:43:03;;;;;;;4.45;3.38;;;;;;;;;;4902222;28;20063;-60
2022/01/08 02:45:30;;;;;;;5.45;3.53;;;;;;;;;;4811096;29;20151;-60
2022/01/08 02:47:56;;;;;;;3.45;2.92;;;;;;;;;;4746066;29;20449;-60
2022/01/08 02:50:23;;;;;;;2.90;2.60;;;;;;;;;;4585204;30;20100;-59
2022/01/08 02:53:55;;;;;;;2.38;1.70;;;;;;;;;;5171410;27;20125;-60
2022/01/08 02:56:21;;;;;;;1.52;1.42;;;;;;;;;;5168916;27;20033;-58
2022/01/08 02:58:46;;;;;;;1.65;1.42;;;;;;;;;;5080059;27;1293855;-60
2022/01/08 03:01:12;;;;;;;2.05;1.48;;;;;;;;;;5068383;28;20033;-58
2022/01/08 03:03:37;;;;;;;1.20;1.05;;;;;;;;;;5061049;28;20507;-60
2022/01/08 03:06:03;;;;;;;2.35;1.23;;;;;;;;;;5061403;28;20473;-57
2022/01/08 03:08:28;;;;;;;1.25;0.98;;;;;;;;;;5061152;28;20032;-59
2022/01/08 03:10:54;;;;;;;1.02;0.93;;;;;;;;;;5061754;28;20029;-60
2022/01/08 03:13:20;;;;;;;0.82;0.82;;;;;;;;;;5061414;28;20167;-60
2022/01/08 03:15:45;;;;;;;0.90;0.90;;;;;;;;;;5064324;28;20170;-60
2022/01/08 03:18:11;;;;;;;0.90;0.75;;;;;;;;;;5061174;28;20040;-57
2022/01/08 03:20:45;;;;;;;0.70;0.70;;;;;;;;;;5055585;28;20028;-60
2022/01/08 03:23:15;;;;;;;0.77;0.77;;;;;;;;;;5055446;28;20025;-60
2022/01/08 03:25:40;;;;;;;0.82;0.60;;;;;;;;;;5060829;28;20562;-60
2022/01/08 03:28:05;;;;;;;1.23;0.80;;;;;;;;;;5056608;28;20045;-61
2022/01/08 03:30:31;;;;;;;0.80;0.80;;;;;;;;;;5061043;28;20099;-58
2022/01/08 03:32:56;;;;;;;1.00;0.70;;;;;;;;;;5055806;28;20063;-57
2022/01/08 03:35:22;;;;;;;1.25;1.15;;;;;;;;;;5056955;28;20028;-56
2022/01/08 03:37:47;;;;;;;1.05;0.95;;;;;;;;;;5052635;28;20029;-59
2022/01/08 03:40:13;;;;;;;0.88;0.88;;;;;;;;;;5056751;28;20445;-58
2022/01/08 03:42:39;;;;;;;0.73;0.73;;;;;;;;;;5055275;28;20040;-58
2022/01/08 03:45:05;;;;;;;1.23;0.70;;;;;;;;;;5055077;28;20040;-58
2022/01/08 03:47:52;;;;;;;0.75;0.70;;;;;;;;;;5057237;28;20493;-55
2022/01/08 03:50:16;;;;;;;0.80;0.73;;;;;;;;;;5056981;28;20116;-58
2022/01/08 03:52:41;;;;;;;0.82;0.80;;;;;;;;;;5055285;28;20576;-58
2022/01/08 03:55:07;;;;;;;0.68;0.68;;;;;;;;;;5054470;28;20036;-60
2022/01/08 03:57:33;;;;;;;0.80;0.80;;;;;;;;;;5054656;28;20037;-58
2022/01/08 03:59:59;;;;;;;1.50;0.90;;;;;;;;;;5088681;27;20030;-56
2022/01/08 04:02:24;;;;;;;1.70;1.00;;;;;;;;;;5125980;27;20018;-51
2022/01/08 04:04:50;;;;;;;1.17;0.90;;;;;;;;;;5112249;27;20024;-58
2022/01/08 04:07:15;;;;;;;1.08;0.98;;;;;;;;;;5113179;27;20071;-58
2022/01/08 04:09:41;;;;;;;1.20;1.02;;;;;;;;;;5108432;27;20073;-57
2022/01/08 04:12:07;;;;;;;1.10;1.00;;;;;;;;;;5114884;27;20036;-58
2022/01/08 04:14:48;;;;;;;1.35;1.25;;;;;;;;;;5110127;27;20526;-57
2022/01/08 04:17:16;;;;;;;1.23;1.13;;;;;;;;;;5114438;27;20038;-59
2022/01/08 04:19:41;;;;;;;1.38;1.17;;;;;;;;;;5108371;27;20027;-58
2022/01/08 04:22:11;;;;;;;2.35;1.00;;;;;;;;;;5110432;27;21627;-55
2022/01/08 04:24:37;;;;;;;0.80;0.80;;;;;;;;;;5108188;27;20016;-56
2022/01/08 04:27:03;;;;;;;0.75;0.75;;;;;;;;;;5106063;27;20046;-58
2022/01/08 04:29:28;;;;;;;1.25;0.50;;;;;;;;;;5092209;27;20054;-58
2022/01/08 04:31:54;;;;;;;0.30;0.20;;;;;;;;;;5109876;27;20055;-57
2022/01/08 04:34:19;;;;;;;0.03;0.00;;;;;;;;;;5103832;27;20071;-57
2022/01/08 04:36:44;;;;;;;0.10;0.10;;;;;;;;;;5107219;27;20081;-59
2022/01/08 04:39:10;;;;;;;0.15;0.10;;;;;;;;;;5107072;27;20751;-58
2022/01/08 04:41:35;;;;;;;0.03;0.03;;;;;;;;;;5107109;27;20028;-58
2022/01/08 04:44:01;;;;;;;0.00;0.00;;;;;;;;;;5107008;27;20031;-56
2022/01/08 04:46:26;;;;;;;0.00;0.00;;;;;;;;;;5106935;27;20023;-58
2022/01/08 04:48:51;;;;;;;0.28;0.10;;;;;;;;;;5108263;27;20031;-58
2022/01/08 04:51:17;;;;;;;1.15;0.30;;;;;;;;;;5106227;27;20038;-56
2022/01/08 04:53:42;;;;;;;1.75;0.30;;;;;;;;;;5107360;27;20582;-58
2022/01/08 04:56:08;;;;;;;0.20;0.10;;;;;;;;;;5104157;27;20031;-58
2022/01/08 04:58:33;;;;;;;0.38;0.13;;;;;;;;;;5107360;27;20123;-58
2022/01/08 05:00:59;;;;;;;0.40;0.30;;;;;;;;;;5076483;27;20376;-56
2022/01/08 05:03:24;;;;;;;0.17;0.15;;;;;;;;;;5065825;28;20024;-55
2022/01/08 05:05:50;;;;;;;0.30;0.20;;;;;;;;;;5066235;28;20484;-58
2022/01/08 05:08:15;;;;;;;1.17;0.30;;;;;;;;;;5066837;28;20441;-55
2022/01/08 05:10:40;;;;;;;0.73;0.63;;;;;;;;;;5064742;28;20067;-57
2022/01/08 05:13:06;;;;;;;0.30;0.30;;;;;;;;;;5065056;28;20040;-53
2022/01/08 05:15:33;;;;;;;0.70;0.65;;;;;;;;;;5066072;28;20050;-58
2022/01/08 05:17:58;;;;;;;1.15;0.75;;;;;;;;;;5067430;28;20111;-56
2022/01/08 05:20:27;;;;;;;1.30;0.80;;;;;;;;;;5067968;28;20447;-58
2022/01/08 05:22:59;;;;;;;1.42;0.90;;;;;;;;;;5069282;28;20021;-51
2022/01/08 05:25:26;;;;;;;1.33;1.23;;;;;;;;;;5069951;28;20037;-53
2022/01/08 05:27:51;;;;;;;1.00;0.90;;;;;;;;;;5068043;28;20028;-48
2022/01/08 05:30:19;;;;;;;1.67;1.30;;;;;;;;;;5066907;28;20062;-48
2022/01/08 05:32:44;;;;;;;1.95;1.27;;;;;;;;;;5067944;28;20035;-48
2022/01/08 05:35:11;;;;;;;2.00;1.80;;;;;;;;;;5068210;28;20032;-46
2022/01/08 05:37:37;;;;;;;2.03;1.52;;;;;;;;;;5069251;28;20419;-47
2022/01/08 05:40:03;;;;;;;4.40;2.15;;;;;;;;;;5069522;28;20036;-49
2022/01/08 05:42:28;;;;;;;6.15;3.10;;;;;;;;;;5063949;28;20074;-50
2022/01/08 05:44:54;;;;;;;2.47;2.15;;;;;;;;;;5068274;28;20032;-53
2022/01/08 05:47:21;;;;;;;4.32;2.20;;;;;;;;;;5065872;28;20550;-49
2022/01/08 05:49:46;;;;;;;2.80;2.13;;;;;;;;;;5067931;28;20396;-47
2022/01/08 05:52:11;;;;;;;6.10;2.30;;;;;;;;;;5067667;28;20043;-50
2022/01/08 05:54:37;;;;;;;4.55;2.50;;;;;;;;;;5064713;28;20489;-47
2022/01/08 05:57:02;;;;;;;5.30;2.42;;;;;;;;;;5067807;28;20024;-48
2022/01/08 05:59:28;;;;;;;3.88;2.60;;;;;;;;;;5067962;28;20124;-49
2022/01/08 06:01:55;;;;;;;5.25;3.00;;;;;;;;;;5091545;28;20036;-48
2022/01/08 06:04:20;;;;;;;5.40;3.00;;;;;;;;;;5086326;28;20369;-49
2022/01/08 06:06:46;;;;;;;3.95;2.47;;;;;;;;;;5085893;28;20040;-49
2022/01/08 06:09:11;;;;;;;6.80;2.88;;;;;;;;;;5087480;28;20031;-45
2022/01/08 06:11:37;;;;;;;4.78;2.67;;;;;;;;;;5088656;28;20032;-54
2022/01/08 06:14:02;;;;;;;4.35;2.83;;;;;;;;;;5085809;28;20035;-48
2022/01/08 06:16:34;;;;;;;5.18;2.70;;;;;;;;;;5087066;28;20118;-50
2022/01/08 06:19:02;;;;;;;4.75;2.40;;;;;;;;;;5089179;28;20023;-52
2022/01/08 06:21:27;;;;;;;5.50;3.00;;;;;;;;;;5087675;28;20047;-50
2022/01/08 06:23:52;;;;;;;4.20;2.72;;;;;;;;;;5069089;28;20023;-47
2022/01/08 06:26:18;;;;;;;7.40;3.53;;;;;;;;;;5089185;28;20023;-49
2022/01/08 06:28:43;;;;;;;5.88;3.33;;;;;;;;;;5087088;28;20391;-47
2022/01/08 06:31:08;;;;;;;4.43;3.17;;;;;;;;;;5091469;28;20028;-49
2022/01/08 06:33:34;;;;;;;6.78;3.63;;;;;;;;;;5086754;28;20039;-52
2022/01/08 06:35:59;;;;;;;8.15;3.88;;;;;;;;;;5087010;28;20051;-48
2022/01/08 06:38:24;;;;;;;6.95;3.58;;;;;;;;;;5087100;28;20019;-48
2022/01/08 06:40:50;;;;;;;5.47;3.38;;;;;;;;;;5086013;28;20028;-49
2022/01/08 06:43:15;;;;;;;6.55;3.88;;;;;;;;;;5084167;28;20059;-48
2022/01/08 06:45:41;;;;;;;6.57;3.75;;;;;;;;;;5085653;28;20521;-49
2022/01/08 06:48:06;;;;;;;7.32;4.13;;;;;;;;;;5087551;28;20030;-47
2022/01/08 06:50:32;;;;;;;5.72;3.65;;;;;;;;;;5087267;28;20032;-50
2022/01/08 06:52:57;;;;;;;7.25;4.22;;;;;;;;;;5069422;28;20039;-56
2022/01/08 06:55:22;;;;;;;8.45;3.78;;;;;;;;;;5084291;28;20024;-58
2022/01/08 06:57:48;;;;;;;8.68;4.07;;;;;;;;;;5071437;28;20115;-57
2022/01/08 07:00:14;;;;;;;7.28;4.07;;;;;;;;;;5085829;28;20113;-55
2022/01/08 07:02:39;;;;;;;11.25;4.25;;;;;;;;;;5087429;28;20040;-57
2022/01/08 07:05:05;;;;;;;8.60;4.00;;;;;;;;;;5087399;28;20028;-57
2022/01/08 07:07:31;;;;;;;9.63;3.95;;;;;;;;;;5085656;28;20100;-57
2022/01/08 07:09:56;;;;;;;6.22;3.42;;;;;;;;;;5085511;28;20046;-55
2022/01/08 07:12:21;;;;;;;5.50;3.83;;;;;;;;;;5083935;28;20427;-55
2022/01/08 07:14:47;;;;;;;6.75;3.92;;;;;;;;;;5087734;28;20028;-57
2022/01/08 07:17:12;;;;;;;8.95;4.05;;;;;;;;;;5086412;28;20024;-56
2022/01/08 07:19:37;;;;;;;7.30;3.90;;;;;;;;;;5085976;28;20541;-57
2022/01/08 07:22:03;;;;;;;12.18;4.43;;;;;;;;;;5084802;28;20032;-57
2022/01/08 07:24:28;;;;;;;8.85;3.90;;;;;;;;;;5083547;28;20028;-57
2022/01/08 07:26:54;;;;;;;7.15;4.53;;;;;;;;;;5085161;28;20506;-57
2022/01/08 07:29:19;;;;;;;8.25;3.78;;;;;;;;;;5083093;28;20036;-55
2022/01/08 07:31:44;;;;;;;8.27;4.38;;;;;;;;;;5085624;28;20031;-55
2022/01/08 07:34:10;;;;;;;8.77;3.83;;;;;;;;;;5083939;28;20028;-52
2022/01/08 07:36:35;;;;;;;8.05;3.92;;;;;;;;;;5084159;28;20040;-56
2022/01/08 07:39:01;;;;;;;7.70;3.67;;;;;;;;;;5086658;28;20035;-59
2022/01/08 07:41:26;;;;;;;6.88;3.97;;;;;;;;;;5088833;28;20028;-52
2022/01/08 07:43:51;;;;;;;7.82;3.97;;;;;;;;;;5089423;28;20028;-54
2022/01/08 07:46:17;;;;;;;8.32;4.45;;;;;;;;;;5092797;28;20035;-54
2022/01/08 07:48:43;;;;;;;10.02;4.32;;;;;;;;;;5088932;28;20131;-56
2022/01/08 07:51:09;;;;;;;7.63;4.70;;;;;;;;;;5092971;28;20028;-56
2022/01/08 07:53:34;;;;;;;7.55;4.40;;;;;;;;;;5087238;28;20481;-54
2022/01/08 07:56:00;;;;;;;10.63;4.18;;;;;;;;;;5091992;28;20016;-54
2022/01/08 07:58:25;;;;;;;9.52;4.72;;;;;;;;;;5086203;28;20032;-52
2022/01/08 08:00:53;;;;;;;8.30;3.58;;;;;;;;;;5091208;28;20028;-56
2022/01/08 08:03:19;;;;;;;6.97;3.35;;;;;;;;;;5089001;28;20077;-58
2022/01/08 08:05:45;;;;;;;8.52;3.70;;;;;;;;;;5090827;28;20114;-56
2022/01/08 08:08:16;;;;;;;6.05;3.08;;;;;;;;;;5090782;28;20106;-55
2022/01/08 08:10:41;;;;;;;6.05;3.15;;;;;;;;;;5090772;28;20066;-57
2022/01/08 08:13:06;;;;;;;4.53;3.05;;;;;;;;;;5090708;28;20124;-55
2022/01/08 08:15:32;;;;;;;7.95;3.67;;;;;;;;;;5068623;28;20027;-53
2022/01/08 08:17:57;;;;;;;6.07;3.47;;;;;;;;;;5089083;28;20062;-56
2022/01/08 08:20:23;;;;;;;5.90;3.08;;;;;;;;;;5089531;28;20468;-55
2022/01/08 08:22:48;;;;;;;7.22;2.97;;;;;;;;;;5092301;28;20376;-57
2022/01/08 08:25:14;;;;;;;10.68;3.75;;;;;;;;;;5086858;28;20066;-57
2022/01/08 08:27:40;;;;;;;4.97;2.90;;;;;;;;;;5071181;28;20563;-53
2022/01/08 08:30:06;;;;;;;9.60;3.42;;;;;;;;;;5086339;28;20031;-56
2022/01/08 08:32:32;;;;;;;11.68;3.60;;;;;;;;;;5091591;28;20031;-53
2022/01/08 08:34:57;;;;;;;5.47;3.38;;;;;;;;;;5069625;28;20035;-56
2022/01/08 08:37:23;;;;;;;10.00;3.20;;;;;;;;;;5089125;28;20111;-57
2022/01/08 08:39:48;;;;;;;7.13;2.70;;;;;;;;;;5086806;28;20040;-57
2022/01/08 08:42:14;;;;;;;7.38;2.90;;;;;;;;;;5092121;28;20039;-56
2022/01/08 08:44:39;;;;;;;9.13;3.53;;;;;;;;;;5086601;28;20110;-56
2022/01/08 08:47:05;;;;;;;9.73;2.50;;;;;;;;;;5093116;28;20024;-56
2022/01/08 08:49:30;;;;;;;5.25;2.47;;;;;;;;;;5088962;28;20032;-53
2022/01/08 08:51:56;;;;;;;4.13;2.20;;;;;;;;;;5088123;28;20027;-56
2022/01/08 08:54:21;;;;;;;6.13;2.25;;;;;;;;;;5090610;28;20278;-55
2022/01/08 08:56:47;;;;;;;6.80;2.20;;;;;;;;;;5087875;28;20036;-52
2022/01/08 08:59:12;;;;;;;5.20;2.25;;;;;;;;;;5093039;28;20027;-55
2022/01/08 09:01:38;;;;;;;5.75;1.95;;;;;;;;;;5088949;28;20037;-54
2022/01/08 09:04:04;;;;;;;5.57;1.92;;;;;;;;;;5075432;28;20016;-56
2022/01/08 09:06:30;;;;;;;8.43;2.10;;;;;;;;;;5086281;28;20028;-56
2022/01/08 09:08:55;;;;;;;5.75;1.77;;;;;;;;;;5091039;28;20418;-55
2022/01/08 09:11:21;;;;;;;7.82;2.05;;;;;;;;;;5067235;28;20031;-53
2022/01/08 09:13:46;;;;;;;3.78;1.75;;;;;;;;;;5093984;28;20081;-57
2022/01/08 09:16:12;;;;;;;3.35;1.70;;;;;;;;;;5069288;28;20027;-57
2022/01/08 09:18:39;;;;;;;12.55;2.15;;;;;;;;;;5090757;28;20039;-56
2022/01/08 09:21:05;;;;;;;4.80;1.88;;;;;;;;;;5089634;28;20046;-52
2022/01/08 09:23:31;;;;;;;5.85;2.28;;;;;;;;;;5088359;28;20043;-57
2022/01/08 09:25:57;;;;;;;7.22;2.60;;;;;;;;;;5087300;28;20048;-57
2022/01/08 09:28:23;;;;;;;7.55;2.50;;;;;;;;;;5090202;28;20031;-58
2022/01/08 09:30:48;;;;;;;6.05;2.08;;;;;;;;;;5088797;28;20032;-56
2022/01/08 09:33:15;;;;;;;5.00;2.13;;;;;;;;;;5088672;28;20493;-56
2022/01/08 09:35:41;;;;;;;3.05;1.85;;;;;;;;;;5086909;28;20493;-58
2022/01/08 09:38:06;;;;;;;6.40;2.20;;;;;;;;;;5087906;28;20151;-55
2022/01/08 09:40:32;;;;;;;6.55;2.40;;;;;;;;;;5091640;28;20388;-57
2022/01/08 09:42:58;;;;;;;7.03;2.20;;;;;;;;;;5085873;28;20369;-57
2022/01/08 09:45:24;;;;;;;7.32;2.03;;;;;;;;;;5089796;28;20035;-55
2022/01/08 09:47:49;;;;;;;8.00;2.05;;;;;;;;;;5086086;28;20040;-56
2022/01/08 09:50:14;;;;;;;3.65;2.13;;;;;;;;;;5087590;28;20522;-54
2022/01/08 09:52:40;;;;;;;7.38;1.90;;;;;;;;;;5083276;28;20050;-54
2022/01/08 09:55:07;;;;;;;5.80;1.75;;;;;;;;;;5092460;28;20031;-57
2022/01/08 09:57:33;;;;;;;8.57;2.20;;;;;;;;;;5068006;28;20041;-56
2022/01/08 09:59:58;;;;;;;7.85;2.85;;;;;;;;;;5087044;28;20035;-55
2022/01/08 10:02:24;;;;;;;11.23;2.70;;;;;;;;;;5083733;28;20095;-55
2022/01/08 10:04:50;;;;;;;5.43;2.03;;;;;;;;;;5087450;28;20031;-57
2022/01/08 10:07:20;;;;;;;6.50;2.45;;;;;;;;;;5084349;28;20081;-56
2022/01/08 10:10:15;;;;;;;5.18;2.03;;;;;;;;;;5087977;28;20031;-56
2022/01/08 10:12:58;;;;;;;8.32;2.10;;;;;;;;;;5084820;28;20039;-50
2022/01/08 10:18:13;;;;;;;7.57;2.33;;;;;;;;;;5086242;28;20265;-58
2022/01/08 10:20:40;;;;;;;7.93;2.53;;;;;;;;;;5088198;28;20074;-56
2022/01/08 10:23:11;;;;;;;8.07;2.70;;;;;;;;;;5083877;28;20111;-54
2022/01/08 10:25:40;;;;;;;9.15;2.67;;;;;;;;;;5091011;28;20494;-56
2022/01/08 10:28:05;;;;;;;8.25;2.55;;;;;;;;;;5085697;28;20048;-52
2022/01/08 10:30:31;;;;;;;3.65;2.40;;;;;;;;;;5085100;28;20087;-58
2022/01/08 10:33:01;;;;;;;6.85;2.90;;;;;;;;;;5086247;28;20035;-56
2022/01/08 10:35:53;;;;;;;6.65;2.35;;;;;;;;;;5084657;28;20059;-51
2022/01/08 10:38:19;;;;;;;5.07;2.30;;;;;;;;;;5085216;28;20472;-57
2022/01/08 10:40:44;;;;;;;4.25;1.83;;;;;;;;;;5087845;28;20024;-57
2022/01/08 10:43:26;;;;;;;7.72;2.00;;;;;;;;;;5084828;28;20057;-57
2022/01/08 10:45:54;;;;;;;5.35;2.08;;;;;;;;;;5072072;28;20066;-57
2022/01/08 10:48:25;;;;;;;5.38;2.42;;;;;;;;;;5082458;28;20028;-54
2022/01/08 10:50:51;;;;;;;6.75;2.17;;;;;;;;;;5086877;28;20031;-55
2022/01/08 10:53:16;;;;;;;8.98;2.15;;;;;;;;;;5087724;28;20437;-51
2022/01/08 10:55:42;;;;;;;5.13;1.52;;;;;;;;;;5087386;28;20573;-56
2022/01/08 10:58:07;;;;;;;3.60;1.60;;;;;;;;;;5084370;28;20552;-57
2022/01/08 11:00:33;;;;;;;9.20;1.95;;;;;;;;;;5098956;27;20510;-58
2022/01/08 11:02:58;;;;;;;5.93;1.83;;;;;;;;;;5122875;27;20059;-55
2022/01/08 11:05:24;;;;;;;3.90;1.95;;;;;;;;;;5115655;27;20031;-57
2022/01/08 11:07:49;;;;;;;6.95;2.35;;;;;;;;;;5121488;27;20031;-57
2022/01/08 11:10:18;;;;;;;3.95;2.00;;;;;;;;;;5103061;27;20460;-55
2022/01/08 11:12:46;;;;;;;6.78;2.15;;;;;;;;;;5064341;28;20029;-58
2022/01/08 11:17:51;;;;;;;9.57;2.47;;;;;;;;;;4849827;29;20395;-57
2022/01/08 11:20:19;;;;;;;3.50;1.98;;;;;;;;;;4745356;29;20680;-53
2022/01/08 11:25:32;;;;;;;6.93;2.10;;;;;;;;;;5173420;27;20453;-56
2022/01/08 11:27:57;;;;;;;6.68;2.10;;;;;;;;;;5131717;27;20035;-56
2022/01/08 11:30:31;;;;;;;9.70;2.85;;;;;;;;;;5128545;27;20032;-56
2022/01/08 11:33:02;;;;;;;9.68;2.38;;;;;;;;;;5120903;27;20036;-56
2022/01/08 11:35:32;;;;;;;8.90;2.13;;;;;;;;;;4995738;28;20526;-56
2022/01/08 11:38:02;;;;;;;4.30;2.25;;;;;;;;;;4882346;29;20109;-55
2022/01/08 11:40:40;;;;;;;4.88;2.00;;;;;;;;;;4786321;29;20049;-53
2022/01/08 11:43:11;;;;;;;4.45;2.22;;;;;;;;;;4606288;30;20041;-55
2022/01/08 11:45:47;;;;;;;5.22;1.85;;;;;;;;;;4477589;31;20047;-55
2022/01/08 11:49:25;;;;;;;5.70;2.50;;;;;;;;;;5155265;27;20402;-53
2022/01/08 11:52:17;;;;;;;7.68;2.60;;;;;;;;;;5139811;27;20494;-55
2022/01/08 11:54:44;;;;;;;7.28;2.15;;;;;;;;;;5109215;27;20028;-55
2022/01/08 11:57:21;;;;;;;6.03;2.35;;;;;;;;;;5069611;28;20032;-53
2022/01/08 11:59:48;;;;;;;8.70;2.50;;;;;;;;;;4982496;28;20039;-50
2022/01/08 12:02:15;;;;;;;2.70;1.80;;;;;;;;;;4951598;28;20018;-55
2022/01/08 12:04:47;;;;;;;8.00;2.20;;;;;;;;;;4925290;28;20032;-54
2022/01/08 12:07:39;;;;;;;6.68;2.42;;;;;;;;;;4742137;29;20594;-55
2022/01/08 12:10:15;;;;;;;8.32;2.15;;;;;;;;;;4437730;30;21147;-56
2022/01/08 12:12:46;;;;;;;10.63;2.43;;;;;;;;;;3887750;32;15397485;-54
2022/01/08 12:15:12;;;;;;;8.05;1.98;;;;;;;;;;4353563;32;20331;-56
2022/01/08 12:18:12;;;;;;;8.00;2.22;;;;;;;;;;4330570;33;20071;-58
2022/01/08 12:20:50;;;;;;;7.22;2.47;;;;;;;;;;4330684;33;20242;-55
2022/01/08 12:23:25;;;;;;;6.07;2.58;;;;;;;;;;4331824;33;20515;-55
2022/01/08 12:25:51;;;;;;;7.28;2.60;;;;;;;;;;4332703;33;20051;-58
2022/01/08 12:28:57;;;;;;;5.60;2.20;;;;;;;;;;4331339;33;20040;-57
2022/01/08 12:31:36;;;;;;;4.82;1.95;;;;;;;;;;4340415;32;20055;-51
2022/01/08 12:34:26;;;;;;;4.28;1.70;;;;;;;;;;4327343;33;20043;-54
2022/01/08 12:36:54;;;;;;;3.47;1.60;;;;;;;;;;4329578;33;20059;-58
2022/01/08 12:39:44;;;;;;;5.38;1.90;;;;;;;;;;4329404;33;20051;-54
2022/01/08 12:42:25;;;;;;;5.38;2.10;;;;;;;;;;4330479;33;20087;-51
2022/01/08 12:45:06;;;;;;;5.68;2.08;;;;;;;;;;4331822;33;20054;-55
2022/01/08 12:47:41;;;;;;;3.25;2.00;;;;;;;;;;4331369;33;20059;-55
2022/01/08 12:50:43;;;;;;;6.63;2.03;;;;;;;;;;4330620;33;20068;-56
2022/01/08 12:53:15;;;;;;;4.07;1.90;;;;;;;;;;4332003;33;20070;-51
2022/01/08 12:55:43;;;;;;;3.67;2.10;;;;;;;;;;4332592;32;20051;-54
2022/01/08 12:58:18;;;;;;;8.57;2.70;;;;;;;;;;4329103;33;20055;-55
2022/01/08 13:01:04;;;;;;;7.05;2.20;;;;;;;;;;4320606;33;20092;-56
2022/01/08 13:03:30;;;;;;;9.45;2.25;;;;;;;;;;4330232;33;20060;-53
2022/01/08 13:06:02;;;;;;;7.22;2.30;;;;;;;;;;4322506;33;20103;-55
2022/01/08 13:08:34;;;;;;;7.20;2.10;;;;;;;;;;4310483;32;20061;-53
2022/01/08 13:11:03;;;;;;;5.67;2.20;;;;;;;;;;3805817;33;15117176;-55
2022/01/08 13:13:46;;;;;;;3.20;2.00;;;;;;;;;;4373781;32;20046;-52
2022/01/08 13:16:44;;;;;;;6.93;2.20;;;;;;;;;;4398832;32;20052;-52
2022/01/08 13:19:20;;;;;;;4.45;1.75;;;;;;;;;;4410051;32;20752;-56
2022/01/08 13:21:51;;;;;;;5.07;2.08;;;;;;;;;;4397311;32;20651;-52
2022/01/08 13:24:24;;;;;;;5.32;1.67;;;;;;;;;;4397382;32;20510;-56
2022/01/08 13:26:54;;;;;;;5.67;2.10;;;;;;;;;;4398762;32;20041;-56
2022/01/08 13:29:27;;;;;;;2.85;1.90;;;;;;;;;;4396505;32;20343;-54
2022/01/08 13:31:59;;;;;;;3.50;1.65;;;;;;;;;;4399237;32;20072;-56
2022/01/08 13:34:30;;;;;;;4.07;2.05;;;;;;;;;;4394981;32;20050;-54
2022/01/08 13:36:59;;;;;;;5.15;2.10;;;;;;;;;;4399097;32;20121;-52
2022/01/08 13:39:30;;;;;;;8.02;2.58;;;;;;;;;;4394791;32;20471;-55
2022/01/08 13:42:13;;;;;;;5.28;1.83;;;;;;;;;;4397333;32;20044;-56
2022/01/08 13:44:59;;;;;;;5.80;2.28;;;;;;;;;;4394877;32;20046;-55
2022/01/08 13:47:30;;;;;;;4.28;1.98;;;;;;;;;;4398927;32;20089;-54
2022/01/08 13:50:07;;;;;;;6.15;1.80;;;;;;;;;;4396231;32;20038;-55
2022/01/08 13:52:39;;;;;;;5.88;2.05;;;;;;;;;;4399396;32;20073;-54
2022/01/08 13:55:13;;;;;;;5.20;2.25;;;;;;;;;;4397440;32;20176;-51
2022/01/08 13:57:39;;;;;;;7.72;2.50;;;;;;;;;;4395384;32;20489;-54
2022/01/08 14:00:21;;;;;;;5.28;1.83;;;;;;;;;;4394849;32;20072;-54
2022/01/08 14:02:48;;;;;;;5.65;2.10;;;;;;;;;;4396138;32;20053;-55
2022/01/08 14:05:14;;;;;;;3.90;1.90;;;;;;;;;;4397191;32;20045;-54
2022/01/08 14:07:41;;;;;;;4.50;1.88;;;;;;;;;;4395367;32;20140;-54
2022/01/08 14:10:12;;;;;;;4.75;2.20;;;;;;;;;;4527282;31;20086;-51
2022/01/08 14:12:37;;;;;;;3.35;1.80;;;;;;;;;;4631549;30;20103;-53
2022/01/08 14:15:05;;;;;;;10.00;1.98;;;;;;;;;;4660564;30;20140;-56
2022/01/08 14:17:35;;;;;;;5.68;2.03;;;;;;;;;;4694692;30;20306;-53
2022/01/08 14:20:03;;;;;;;4.97;2.42;;;;;;;;;;4692629;30;20038;-55
2022/01/08 14:22:29;;;;;;;4.28;1.70;;;;;;;;;;4707999;30;20414;-54
2022/01/08 14:24:55;;;;;;;4.75;1.42;;;;;;;;;;4693170;30;20129;-57
2022/01/08 14:27:22;;;;;;;2.63;1.50;;;;;;;;;;4695036;30;20124;-56
2022/01/08 14:30:04;;;;;;;3.10;1.60;;;;;;;;;;4692491;30;20139;-51
2022/01/08 14:32:29;;;;;;;3.90;1.38;;;;;;;;;;4695172;30;20154;-57
2022/01/08 14:34:59;;;;;;;4.28;1.60;;;;;;;;;;4705754;30;20191;-55
2022/01/08 14:37:45;;;;;;;4.30;1.75;;;;;;;;;;4694657;30;20455;-59
2022/01/08 14:40:18;;;;;;;4.32;1.55;;;;;;;;;;4692672;30;20110;-55
2022/01/08 14:42:44;;;;;;;;;;;;;;;;;;4694452;30;20589;-53
2022/01/08 14:45:17;;;;;;;4.80;1.90;;;;;;;;;;4692814;30;19919;-56
2022/01/08 14:47:43;;;;;;;3.17;1.42;;;;;;;;;;4694595;30;20424;-56
2022/01/08 14:50:12;;;;;;;3.05;1.10;;;;;;;;;;4692100;30;20128;-53
2022/01/08 14:52:38;;;;;;;3.25;1.48;;;;;;;;;;4692888;30;20037;-56
2022/01/08 14:55:06;;;;;;;3.65;1.30;;;;;;;;;;4692464;30;20391;-57
2022/01/08 14:57:31;;;;;;;5.70;1.63;;;;;;;;;;4692626;30;20037;-56
2022/01/08 14:59:58;;;;;;;2.75;1.50;;;;;;;;;;4691996;30;20040;-59
2022/01/08 15:02:24;;;;;;;2.25;1.17;;;;;;;;;;4694710;30;20060;-56
2022/01/08 15:04:49;;;;;;;3.45;0.95;;;;;;;;;;4692867;30;20029;-56
2022/01/08 15:07:15;;;;;;;3.20;1.70;;;;;;;;;;4693215;30;20041;-58
2022/01/08 15:09:40;;;;;;;4.43;1.77;;;;;;;;;;4675394;30;20420;-55
2022/01/08 15:12:07;;;;;;;4.07;1.60;;;;;;;;;;4651387;30;1270900;-57
2022/01/08 15:14:33;;;;;;;3.10;1.40;;;;;;;;;;4738032;30;20031;-52